Tolland, Massachusetts
Current Conditions -  °F | °C
As of 6:53 AM on Tuesday 21 Oct 2014 (Local Time) from KBAF Reporting Station
Broken Clouds Broken Clouds  
Wind Chill: 42°   Ceiling: 11000
Heat Index: 45°   Visibility: 10mi
Dew Point: 41°   Wind: 6mph
Humidity: 86%   Direction: 350°N
Pressure: 29.93"   Gusts: NA
Location:  42.0855°N, 72.9568°W
Report Text: KBAF 211053Z 35005KT 10SM BKN110 07/05 A2993 RMK AO2 SLP138 T00720050
Loading
Personal Weather Stations






























Interactive Weather Map
Tropical Storm Tracking
New forecast layout! Learn more

10-Day Weather Forecast

Advertisements
Track Severe Weather on mobile